Wimbledon, North Dakota
Current Conditions -  °F | °C
As of 3:56 AM on Tuesday 27 Jan 2015 (Local Time) from KJMS Reporting Station
Clear Clear  
Wind Chill: 18°   Ceiling: Unl
Heat Index: 26°   Visibility: 10mi
Dew Point: 24°   Wind: 7mph
Humidity: 92%   Direction: 190°S
Pressure: 29.98"   Gusts: NA
Location:  47.17°N, 98.46°W
Report Text: KJMS 270956Z AUTO 19006KT 10SM CLR M03/M04 A2998 RMK AO2 SLP170 T10331044
Loading
Personal Weather Stations






























Interactive Weather Map New forecast layout! Learn more

10-Day Weather Forecast

Advertisements
Track Severe Weather on mobile